createdAt,value
2018-03-03T00:02:16.901Z,54.31
2018-03-03T00:04:45.250Z,54.63
2018-03-03T00:07:13.657Z,55.01
2018-03-03T00:09:42.012Z,55.09
2018-03-03T00:12:10.330Z,55.30
2018-03-03T00:14:38.661Z,55.28
2018-03-03T00:17:06.988Z,55.43
2018-03-03T00:19:35.429Z,55.67
2018-03-03T00:22:03.773Z,55.72
2018-03-03T00:24:32.199Z,55.78
2018-03-03T00:27:00.534Z,55.89
2018-03-03T00:29:28.889Z,55.86
2018-03-03T00:31:57.276Z,56.46
2018-03-03T00:34:25.650Z,56.71
2018-03-03T00:36:54.836Z,56.39
2018-03-03T00:39:23.190Z,56.45
2018-03-03T00:41:51.572Z,56.68
2018-03-03T00:44:19.921Z,56.97
2018-03-03T00:46:48.544Z,57.00
2018-03-03T00:49:16.943Z,56.87
2018-03-03T00:51:45.289Z,57.04
2018-03-03T00:54:13.616Z,57.10
2018-03-03T00:56:42.014Z,57.65
2018-03-03T00:59:10.409Z,57.71
2018-03-03T01:01:38.749Z,57.65
2018-03-03T01:04:07.085Z,57.66
2018-03-03T01:06:35.426Z,57.57
2018-03-03T01:09:03.758Z,57.97
2018-03-03T01:11:32.096Z,58.47
2018-03-03T01:14:00.550Z,58.34
2018-03-03T01:16:28.975Z,58.24
2018-03-03T01:18:57.308Z,58.50
2018-03-03T01:21:25.662Z,58.74
2018-03-03T01:23:54.026Z,58.65
2018-03-03T01:26:22.365Z,58.87
2018-03-03T01:28:50.707Z,58.71
2018-03-03T01:31:19.053Z,58.82
2018-03-03T01:33:47.389Z,59.25
2018-03-03T01:36:15.725Z,59.05
2018-03-03T01:38:44.067Z,59.20
2018-03-03T01:41:12.687Z,59.38
2018-03-03T01:43:41.026Z,59.67
2018-03-03T01:46:09.379Z,60.01
2018-03-03T01:48:37.838Z,59.81
2018-03-03T01:51:06.252Z,60.04
2018-03-03T01:53:34.578Z,60.07
2018-03-03T01:56:02.936Z,60.24
2018-03-03T01:58:31.292Z,60.35
2018-03-03T02:00:59.631Z,60.36
2018-03-03T02:03:27.984Z,60.78
2018-03-03T02:05:56.341Z,60.87
2018-03-03T02:08:24.827Z,60.96
2018-03-03T02:10:53.528Z,61.03
2018-03-03T02:13:21.870Z,60.85
2018-03-03T02:15:50.268Z,61.23
2018-03-03T02:18:18.666Z,61.22
2018-03-03T02:20:47.002Z,61.51
2018-03-03T02:23:15.346Z,61.48
2018-03-03T02:25:43.679Z,61.76
2018-03-03T02:28:12.021Z,61.78
2018-03-03T02:30:40.355Z,62.26
2018-03-03T02:33:08.700Z,62.01
2018-03-03T02:35:37.033Z,62.28
2018-03-03T02:38:05.357Z,62.20
2018-03-03T02:40:33.787Z,62.44
2018-03-03T02:43:02.168Z,62.57
2018-03-03T02:45:30.553Z,62.10
2018-03-03T02:47:58.876Z,62.67
2018-03-03T02:50:27.238Z,62.63
2018-03-03T02:52:55.571Z,62.71
2018-03-03T02:55:24.037Z,63.04
2018-03-03T02:57:52.477Z,63.34
2018-03-03T03:00:20.859Z,62.79
2018-03-03T03:02:49.197Z,63.14
2018-03-03T03:05:17.640Z,62.96
2018-03-03T03:07:45.954Z,62.99
2018-03-03T03:10:14.373Z,63.29
2018-03-03T03:12:42.726Z,63.17
2018-03-03T03:15:11.156Z,63.10
2018-03-03T03:17:39.514Z,63.11
2018-03-03T03:20:07.942Z,63.43
2018-03-03T03:22:36.355Z,63.69
2018-03-03T03:25:04.733Z,63.70
2018-03-03T03:27:33.085Z,63.68
2018-03-03T03:30:01.515Z,64.03
2018-03-03T03:32:29.845Z,64.21
2018-03-03T03:34:58.200Z,64.31
2018-03-03T03:37:26.651Z,64.14
2018-03-03T03:39:55.011Z,64.35
2018-03-03T03:42:23.394Z,64.31
2018-03-03T03:44:51.734Z,64.62
2018-03-03T03:47:20.073Z,64.85
2018-03-03T03:49:48.458Z,64.70
2018-03-03T03:52:16.801Z,65.28
2018-03-03T03:54:45.141Z,65.48
2018-03-03T03:57:13.485Z,65.55
2018-03-03T03:59:41.940Z,65.61
2018-03-03T04:02:10.283Z,66.01
2018-03-03T04:04:38.716Z,65.91
2018-03-03T04:07:07.053Z,66.18
2018-03-03T04:09:35.486Z,65.55
2018-03-03T04:12:03.825Z,65.56
2018-03-03T04:14:32.174Z,65.53
2018-03-03T04:17:01.288Z,65.14
2018-03-03T04:19:29.623Z,65.53
2018-03-03T04:21:58.062Z,65.60
2018-03-03T04:24:26.394Z,65.71
2018-03-03T04:26:54.756Z,65.68
2018-03-03T04:29:23.100Z,65.79
2018-03-03T04:31:51.446Z,65.64
2018-03-03T04:34:19.767Z,65.46
2018-03-03T04:36:48.109Z,65.30
2018-03-03T04:39:16.438Z,65.66
2018-03-03T04:41:44.975Z,65.80
2018-03-03T04:44:13.392Z,65.83
2018-03-03T04:46:41.737Z,65.87
2018-03-03T04:49:10.145Z,65.70
2018-03-03T04:51:38.437Z,65.71
2018-03-03T04:54:06.767Z,65.87
2018-03-03T04:56:35.088Z,66.13
2018-03-03T04:59:06.807Z,66.25
2018-03-03T05:01:35.931Z,66.45
2018-03-03T05:04:08.299Z,66.76
2018-03-03T05:09:38.799Z,66.45
2018-03-03T05:12:07.137Z,66.82
2018-03-03T05:14:36.300Z,66.99
2018-03-03T05:17:11.533Z,67.11
2018-03-03T05:19:45.542Z,67.50
2018-03-03T05:25:23.335Z,66.94
2018-03-03T05:27:57.392Z,67.37
2018-03-03T05:33:31.530Z,67.64
2018-03-03T05:39:05.584Z,67.86
2018-03-03T05:41:39.568Z,67.79
2018-03-03T05:44:13.559Z,67.77
2018-03-03T05:46:58.598Z,67.64
2018-03-03T05:49:29.314Z,68.09
2018-03-03T05:55:07.224Z,68.16
2018-03-03T05:57:41.181Z,68.15
2018-03-03T06:03:39.173Z,68.43
2018-03-03T06:06:27.318Z,68.41
2018-03-03T06:08:55.660Z,68.45
2018-03-03T06:11:24.015Z,68.23
2018-03-03T06:13:52.652Z,67.56
2018-03-03T06:16:21.105Z,67.06
2018-03-03T06:18:49.446Z,66.20
2018-03-03T06:21:17.876Z,64.91
2018-03-03T06:23:46.617Z,63.27
2018-03-03T06:26:14.932Z,60.83
2018-03-03T06:28:43.277Z,59.73
2018-03-03T06:31:11.623Z,58.10
2018-03-03T06:33:40.073Z,58.28
2018-03-03T06:36:08.407Z,58.06
2018-03-03T06:38:36.815Z,57.26
2018-03-03T06:41:05.212Z,57.22
2018-03-03T06:43:33.603Z,57.89
2018-03-03T06:46:01.997Z,57.68
2018-03-03T06:48:33.820Z,56.24
2018-03-03T06:51:02.161Z,55.33
2018-03-03T06:53:30.551Z,55.23
2018-03-03T06:55:58.940Z,54.78
2018-03-03T06:58:27.260Z,55.20
2018-03-03T07:00:55.684Z,55.39
2018-03-03T07:03:24.063Z,56.11
2018-03-03T07:05:52.497Z,56.41
2018-03-03T07:08:20.954Z,56.51
2018-03-03T07:10:49.279Z,56.76
2018-03-03T07:13:17.608Z,57.00
2018-03-03T07:15:45.949Z,56.45
2018-03-03T07:18:14.274Z,56.33
2018-03-03T07:20:42.605Z,55.20
2018-03-03T07:23:11.202Z,54.58
2018-03-03T07:25:39.661Z,53.87
2018-03-03T07:28:08.006Z,53.21
2018-03-03T07:30:36.436Z,53.37
2018-03-03T07:33:04.858Z,52.64
2018-03-03T07:35:33.181Z,51.53
2018-03-03T07:38:01.602Z,51.44
2018-03-03T07:40:29.925Z,50.33
2018-03-03T07:42:58.553Z,50.04
2018-03-03T07:45:26.883Z,49.97
2018-03-03T07:47:55.261Z,50.37
2018-03-03T07:50:23.599Z,49.59
2018-03-03T07:52:51.978Z,49.41
2018-03-03T07:55:20.406Z,47.84
2018-03-03T07:57:48.763Z,46.92
2018-03-03T08:00:17.100Z,46.70
2018-03-03T08:02:45.433Z,45.96
2018-03-03T08:05:13.755Z,46.13
2018-03-03T08:07:42.150Z,45.04
2018-03-03T08:10:10.475Z,45.39
2018-03-03T08:12:38.887Z,45.65
2018-03-03T08:15:07.304Z,45.27
2018-03-03T08:17:35.695Z,44.02
2018-03-03T08:20:04.013Z,44.45
2018-03-03T08:22:32.686Z,43.45
2018-03-03T08:25:01.076Z,44.36
2018-03-03T08:27:29.463Z,44.30
2018-03-03T08:29:57.793Z,45.46
2018-03-03T08:32:26.125Z,45.47
2018-03-03T08:34:54.541Z,46.21
2018-03-03T08:37:22.879Z,41.04
2018-03-03T08:39:51.224Z,40.77
2018-03-03T08:42:19.621Z,40.05
2018-03-03T08:44:47.959Z,40.79
2018-03-03T08:47:16.290Z,40.61
2018-03-03T08:49:44.681Z,40.07
2018-03-03T08:52:13.006Z,40.78
2018-03-03T08:54:41.350Z,42.09
2018-03-03T08:57:09.670Z,42.25
2018-03-03T08:59:38.055Z,42.50
2018-03-03T09:02:06.492Z,41.87
2018-03-03T09:04:34.836Z,43.02
2018-03-03T09:07:03.174Z,42.76
2018-03-03T09:09:31.519Z,42.97
2018-03-03T09:11:59.843Z,40.72
2018-03-03T09:14:28.178Z,39.41
2018-03-03T09:16:56.513Z,39.45
2018-03-03T09:19:25.858Z,39.65
2018-03-03T09:21:54.182Z,39.43
2018-03-03T09:24:22.574Z,38.63
2018-03-03T09:26:50.906Z,38.12
2018-03-03T09:29:19.291Z,37.44
2018-03-03T09:31:47.621Z,36.23
2018-03-03T09:34:15.930Z,37.65
2018-03-03T09:36:44.254Z,37.61
2018-03-03T09:39:12.576Z,37.63
2018-03-03T09:41:40.916Z,37.58
2018-03-03T09:44:09.387Z,37.87
2018-03-03T09:46:37.718Z,36.82
2018-03-03T09:49:06.132Z,37.26
2018-03-03T09:51:34.468Z,36.83
2018-03-03T09:54:02.821Z,37.99
2018-03-03T09:56:31.159Z,37.89
2018-03-03T09:58:59.599Z,38.50
2018-03-03T10:01:27.975Z,38.14
2018-03-03T10:03:56.237Z,37.89
2018-03-03T10:06:24.669Z,37.66
2018-03-03T10:08:53.002Z,37.56
2018-03-03T10:11:21.477Z,38.80
2018-03-03T10:13:49.817Z,39.09
2018-03-03T10:16:18.208Z,39.80
2018-03-03T10:18:46.628Z,40.38
2018-03-03T10:21:15.036Z,40.16
2018-03-03T10:23:43.442Z,39.36
2018-03-03T10:26:11.818Z,39.60
2018-03-03T10:28:40.159Z,39.16
2018-03-03T10:31:08.483Z,39.12
2018-03-03T10:33:36.812Z,39.56
2018-03-03T10:36:05.142Z,39.13
2018-03-03T10:38:33.490Z,38.63
2018-03-03T10:41:01.872Z,40.05
2018-03-03T10:43:30.203Z,39.41
2018-03-03T10:45:58.525Z,40.11
2018-03-03T10:48:26.935Z,39.53
2018-03-03T10:50:55.337Z,39.92
2018-03-03T10:53:23.694Z,40.41
2018-03-03T10:55:52.014Z,39.96
2018-03-03T10:58:20.353Z,40.52
2018-03-03T11:00:50.635Z,40.48
2018-03-03T11:03:19.007Z,40.08
2018-03-03T11:05:47.429Z,39.22
2018-03-03T11:08:15.923Z,39.05
2018-03-03T11:10:44.313Z,38.72
2018-03-03T11:13:12.659Z,38.86
2018-03-03T11:15:41.326Z,37.88
2018-03-03T11:18:09.649Z,36.17
2018-03-03T11:20:37.969Z,34.72
2018-03-03T11:23:06.320Z,34.28
2018-03-03T11:25:34.659Z,33.18
2018-03-03T11:28:02.972Z,33.50
2018-03-03T11:30:31.305Z,33.59
2018-03-03T11:32:59.623Z,33.09
2018-03-03T11:35:27.972Z,32.83
2018-03-03T11:37:56.275Z,32.29
2018-03-03T11:40:24.714Z,31.58
2018-03-03T11:42:53.045Z,32.72
2018-03-03T11:45:21.382Z,32.50
2018-03-03T11:47:49.776Z,32.38
2018-03-03T11:50:18.112Z,30.97
2018-03-03T11:52:46.473Z,30.21
2018-03-03T11:55:14.868Z,29.68
2018-03-03T11:57:43.253Z,30.03
2018-03-03T12:00:11.644Z,30.70
2018-03-03T12:02:39.961Z,30.85
2018-03-03T12:05:08.290Z,30.59
2018-03-03T12:07:36.614Z,30.39
2018-03-03T12:10:05.000Z,30.07
2018-03-03T12:12:33.398Z,30.35
2018-03-03T12:15:01.807Z,29.59
2018-03-03T12:17:30.126Z,29.22
2018-03-03T12:19:58.469Z,29.56
2018-03-03T12:22:26.918Z,29.12
2018-03-03T12:24:55.233Z,29.54
2018-03-03T12:27:23.559Z,30.58
2018-03-03T12:29:51.894Z,31.01
2018-03-03T12:32:20.344Z,31.39
2018-03-03T12:34:48.669Z,31.22
2018-03-03T12:37:17.021Z,31.50
2018-03-03T12:39:45.400Z,32.28
2018-03-03T12:42:13.751Z,32.57
2018-03-03T12:44:42.072Z,33.14
2018-03-03T12:47:10.410Z,33.60
2018-03-03T12:49:38.733Z,33.87
2018-03-03T12:52:07.071Z,35.02
2018-03-03T12:54:35.451Z,35.35
2018-03-03T12:57:03.792Z,35.80
2018-03-03T12:59:32.110Z,36.19
2018-03-03T13:02:00.457Z,36.54
2018-03-03T13:04:28.787Z,36.82
2018-03-03T13:06:57.121Z,37.18
2018-03-03T13:09:25.440Z,37.53
2018-03-03T13:11:53.803Z,37.30
2018-03-03T13:14:22.144Z,37.50
2018-03-03T13:16:51.591Z,37.05
2018-03-03T13:19:19.932Z,36.96
2018-03-03T13:21:48.252Z,36.99
2018-03-03T13:24:16.572Z,37.23
2018-03-03T13:26:44.901Z,36.87
2018-03-03T13:29:13.403Z,36.66
2018-03-03T13:31:41.704Z,36.60
2018-03-03T13:34:10.046Z,36.74
2018-03-03T13:36:38.433Z,36.41
2018-03-03T13:39:06.765Z,36.62
2018-03-03T13:41:35.093Z,36.03
2018-03-03T13:44:03.436Z,36.05
2018-03-03T13:46:31.887Z,35.94
2018-03-03T13:49:00.195Z,36.24
2018-03-03T13:51:28.628Z,36.07
2018-03-03T13:53:56.976Z,35.46
2018-03-03T13:56:25.362Z,36.11
2018-03-03T13:58:53.678Z,36.20
2018-03-03T14:01:22.043Z,36.32
2018-03-03T14:03:50.365Z,36.26
2018-03-03T14:06:18.732Z,36.43
2018-03-03T14:08:47.122Z,36.47
2018-03-03T14:11:15.456Z,36.26
2018-03-03T14:13:43.772Z,36.41
2018-03-03T14:16:12.301Z,37.01
2018-03-03T14:18:40.619Z,37.55
2018-03-03T14:21:08.942Z,37.38
2018-03-03T14:23:37.369Z,37.17
2018-03-03T14:26:05.692Z,37.07
2018-03-03T14:28:34.016Z,36.99
2018-03-03T14:31:02.439Z,37.21
2018-03-03T14:33:30.759Z,37.67
2018-03-03T14:35:59.549Z,37.17
2018-03-03T14:38:27.922Z,37.42
2018-03-03T14:40:56.250Z,37.40
2018-03-03T14:43:24.573Z,37.71
2018-03-03T14:45:53.002Z,37.75
2018-03-03T14:48:21.408Z,38.33
2018-03-03T14:50:49.896Z,38.01
2018-03-03T14:53:18.315Z,37.66
2018-03-03T14:55:46.650Z,38.22
2018-03-03T14:58:14.953Z,38.13
2018-03-03T15:00:43.352Z,38.16
2018-03-03T15:03:11.684Z,38.20
2018-03-03T15:05:40.042Z,38.26
2018-03-03T15:08:08.425Z,38.53
2018-03-03T15:10:36.806Z,38.56
2018-03-03T15:13:05.111Z,38.53
2018-03-03T15:15:33.451Z,38.75
2018-03-03T15:18:01.770Z,38.38
2018-03-03T15:20:30.100Z,38.57
2018-03-03T15:22:58.467Z,38.68
2018-03-03T15:25:26.798Z,38.90
2018-03-03T15:27:55.145Z,39.06
2018-03-03T15:30:23.546Z,39.31
2018-03-03T15:32:51.885Z,39.55
2018-03-03T15:35:20.281Z,39.51
2018-03-03T15:37:48.589Z,39.63
2018-03-03T15:40:16.919Z,40.01
2018-03-03T15:42:45.302Z,39.86
2018-03-03T15:45:13.671Z,40.04
2018-03-03T15:47:42.043Z,40.01
2018-03-03T15:50:10.375Z,40.29
2018-03-03T15:52:38.716Z,40.74
2018-03-03T15:55:07.029Z,40.70
2018-03-03T15:57:35.373Z,40.81
2018-03-03T16:00:03.693Z,41.03
2018-03-03T16:02:32.026Z,41.34
2018-03-03T16:05:00.347Z,41.29
2018-03-03T16:07:28.684Z,41.06
2018-03-03T16:09:57.004Z,41.20
2018-03-03T16:12:25.459Z,41.21
2018-03-03T16:14:53.752Z,41.32
2018-03-03T16:17:22.124Z,41.29
2018-03-03T16:19:50.490Z,41.22
2018-03-03T16:22:18.885Z,41.41
2018-03-03T16:24:47.209Z,41.77
2018-03-03T16:27:15.643Z,41.75
2018-03-03T16:29:44.000Z,41.95
2018-03-03T16:32:12.331Z,41.76
2018-03-03T16:34:40.683Z,41.76
2018-03-03T16:37:09.005Z,41.99
2018-03-03T16:39:37.387Z,42.15
2018-03-03T16:42:05.798Z,42.25
2018-03-03T16:44:34.138Z,42.30
2018-03-03T16:47:02.491Z,42.47
2018-03-03T16:49:31.425Z,42.74
2018-03-03T16:52:02.343Z,43.40
2018-03-03T16:54:30.690Z,43.55
2018-03-03T16:56:59.020Z,43.13
2018-03-03T16:59:27.412Z,43.27
2018-03-03T17:01:55.798Z,43.43
2018-03-03T17:04:24.178Z,43.50
2018-03-03T17:06:52.543Z,43.51
2018-03-03T17:09:20.902Z,43.26
2018-03-03T17:11:49.310Z,43.43
2018-03-03T17:14:17.629Z,43.56
2018-03-03T17:16:46.006Z,43.91
2018-03-03T17:19:14.393Z,43.68
2018-03-03T17:21:43.032Z,43.98
2018-03-03T17:24:11.381Z,44.03
2018-03-03T17:26:39.714Z,44.17
2018-03-03T17:29:08.057Z,44.23
2018-03-03T17:31:36.384Z,44.42
2018-03-03T17:34:04.716Z,44.44
2018-03-03T17:36:33.046Z,44.64
2018-03-03T17:39:01.374Z,44.72
2018-03-03T17:41:29.776Z,44.69
2018-03-03T17:43:58.107Z,45.17
2018-03-03T17:46:26.444Z,45.23
2018-03-03T17:48:54.766Z,45.21
2018-03-03T17:51:23.183Z,45.72
2018-03-03T17:53:52.489Z,45.78
2018-03-03T17:56:20.801Z,46.13
2018-03-03T17:58:49.220Z,46.30
2018-03-03T18:01:17.717Z,46.65
2018-03-03T18:03:46.043Z,46.66
2018-03-03T18:06:14.402Z,46.82
2018-03-03T18:08:42.746Z,46.71
2018-03-03T18:11:11.080Z,46.79
2018-03-03T18:13:39.407Z,46.82
2018-03-03T18:16:07.767Z,47.36
2018-03-03T18:18:36.173Z,46.97
2018-03-03T18:21:04.503Z,47.07
2018-03-03T18:23:32.852Z,47.22
2018-03-03T18:26:01.195Z,47.23
2018-03-03T18:28:29.516Z,47.81
2018-03-03T18:30:57.859Z,47.85
2018-03-03T18:33:26.261Z,47.87
2018-03-03T18:35:54.607Z,47.92
2018-03-03T18:38:22.942Z,48.04
2018-03-03T18:40:51.261Z,48.51
2018-03-03T18:43:19.683Z,48.42
2018-03-03T18:45:48.408Z,48.70
2018-03-03T18:48:16.750Z,48.89
2018-03-03T18:50:45.108Z,49.40
2018-03-03T18:53:13.455Z,49.47
2018-03-03T18:55:41.845Z,49.13
2018-03-03T18:58:10.199Z,49.53
2018-03-03T19:00:38.571Z,49.45
2018-03-03T19:03:06.888Z,49.83
2018-03-03T19:05:35.299Z,49.66
2018-03-03T19:08:03.651Z,49.82
2018-03-03T19:10:31.970Z,49.99
2018-03-03T19:13:00.304Z,50.04
2018-03-03T19:15:28.651Z,50.07
2018-03-03T19:17:56.981Z,50.29
2018-03-03T19:20:25.367Z,50.54
2018-03-03T19:22:53.671Z,50.37
2018-03-03T19:25:22.104Z,50.42
2018-03-03T19:27:50.634Z,50.51
2018-03-03T19:30:18.954Z,50.58
2018-03-03T19:32:47.294Z,50.57
2018-03-03T19:35:15.639Z,50.78
2018-03-03T19:37:43.986Z,50.78
2018-03-03T19:40:12.691Z,50.94
2018-03-03T19:42:41.016Z,51.01
2018-03-03T19:45:09.351Z,51.05
2018-03-03T19:47:37.671Z,51.11
2018-03-03T19:50:06.092Z,51.25
2018-03-03T19:52:34.417Z,51.36
2018-03-03T19:55:02.746Z,51.39
2018-03-03T19:57:31.102Z,51.50
2018-03-03T19:59:59.432Z,51.69
2018-03-03T20:02:27.787Z,51.53
2018-03-03T20:04:56.214Z,51.64
2018-03-03T20:07:24.580Z,51.87
2018-03-03T20:09:52.918Z,51.84
2018-03-03T20:12:21.270Z,51.76
2018-03-03T20:14:49.606Z,51.92
2018-03-03T20:17:17.931Z,52.24
2018-03-03T20:19:46.270Z,52.11
2018-03-03T20:22:14.599Z,52.34
2018-03-03T20:24:42.946Z,52.67
2018-03-03T20:27:11.265Z,52.80
2018-03-03T20:29:39.596Z,52.74
2018-03-03T20:32:07.926Z,52.56
2018-03-03T20:34:36.261Z,52.42
2018-03-03T20:37:04.598Z,53.00
2018-03-03T20:39:33.020Z,53.18
2018-03-03T20:42:01.653Z,53.19
2018-03-03T20:44:30.080Z,54.09
2018-03-03T20:46:58.503Z,54.19
2018-03-03T20:49:26.841Z,54.25
2018-03-03T20:51:55.183Z,54.04
2018-03-03T20:54:23.549Z,53.69
2018-03-03T20:56:51.951Z,53.74
2018-03-03T20:59:20.284Z,54.05
2018-03-03T21:01:48.620Z,54.47
2018-03-03T21:04:17.008Z,54.89
2018-03-03T21:06:45.417Z,54.92
2018-03-03T21:09:13.911Z,55.06
2018-03-03T21:14:42.345Z,54.96
2018-03-03T21:17:10.698Z,55.36
2018-03-03T21:19:39.125Z,55.19
2018-03-03T21:22:07.458Z,55.07
2018-03-03T21:24:35.785Z,54.98
2018-03-03T21:27:04.189Z,54.89
2018-03-03T21:29:32.578Z,54.93
2018-03-03T21:32:00.949Z,55.15
2018-03-03T21:34:29.368Z,55.25
2018-03-03T21:36:57.721Z,55.26
2018-03-03T21:39:26.037Z,55.64
2018-03-03T21:41:54.363Z,56.01
2018-03-03T21:44:22.773Z,55.97
2018-03-03T21:46:51.173Z,56.14
2018-03-03T21:49:19.509Z,56.37
2018-03-03T21:51:47.824Z,56.18
2018-03-03T21:54:16.157Z,56.28
2018-03-03T21:56:44.469Z,56.24
2018-03-03T21:59:12.811Z,56.71
2018-03-03T22:01:41.138Z,56.91
2018-03-03T22:04:09.460Z,56.87
2018-03-03T22:06:37.784Z,57.06
2018-03-03T22:09:06.118Z,57.16
2018-03-03T22:11:34.455Z,57.29
2018-03-03T22:14:02.792Z,57.60
2018-03-03T22:16:31.235Z,57.62
2018-03-03T22:18:59.570Z,57.50
2018-03-03T22:21:27.894Z,57.56
2018-03-03T22:23:56.296Z,57.36
2018-03-03T22:26:24.629Z,57.33
2018-03-03T22:28:52.991Z,57.58
2018-03-03T22:31:21.385Z,57.58
2018-03-03T22:33:49.741Z,57.59
2018-03-03T22:36:18.057Z,57.72
2018-03-03T22:38:46.442Z,58.02
2018-03-03T22:41:14.840Z,58.00
2018-03-03T22:43:43.182Z,58.31
2018-03-03T22:46:11.523Z,58.40
2018-03-03T22:48:39.992Z,58.43
2018-03-03T22:51:08.327Z,58.50
2018-03-03T22:53:36.699Z,58.58
2018-03-03T22:56:05.077Z,58.43
2018-03-03T22:58:33.574Z,58.52
2018-03-03T23:01:01.925Z,58.67
2018-03-03T23:03:30.267Z,59.03
2018-03-03T23:05:58.635Z,59.26
2018-03-03T23:08:26.919Z,59.30
2018-03-03T23:10:55.258Z,59.41
2018-03-03T23:13:25.381Z,59.49
2018-03-03T23:15:53.726Z,59.50
2018-03-03T23:18:22.075Z,60.12
2018-03-03T23:20:50.583Z,60.15
2018-03-03T23:23:18.906Z,60.41
2018-03-03T23:25:47.273Z,60.63
2018-03-03T23:28:15.636Z,60.59
2018-03-03T23:30:43.983Z,60.73
2018-03-03T23:33:12.300Z,60.76
2018-03-03T23:35:40.630Z,60.65
2018-03-03T23:38:08.985Z,60.75
2018-03-03T23:40:38.110Z,60.69
2018-03-03T23:43:06.451Z,60.83
2018-03-03T23:45:34.878Z,60.65
2018-03-03T23:48:03.210Z,60.84
2018-03-03T23:50:31.613Z,60.96
2018-03-03T23:53:00.051Z,61.21
2018-03-03T23:55:28.369Z,61.39
2018-03-03T23:57:56.734Z,61.72
